Time;durP1;ratioP1;P1;durP2;ratioP2;P2;SDS_P1;SDS_P2;PMS_P1;PMS_P2;Temp;Humidity;BMP_temperature;BMP_pressure;BME280_temperature;BME280_humidity;BME280_pressure;Samples;Min_cycle;Max_cycle;Signal;HPM_P1;HPM_P2
2023/04/13 00:01:26;;;;;;;2.45;1.10;;;8.60;99.90;;;8.45;100.00;99346.44;5137724;29;20039;-83
2023/04/13 00:04:01;;;;;;;3.22;1.40;;;8.60;99.90;;;8.49;100.00;99344.78;5138077;28;20074;-83
2023/04/13 00:06:37;;;;;;;;;;;8.60;99.90;;;8.54;100.00;99343.13;5139039;29;20047;-83
2023/04/13 00:09:09;;;;;;;6.38;1.92;;;8.60;99.90;;;8.58;100.00;99342.34;5138184;29;19973;-85
2023/04/13 00:11:41;;;;;;;7.90;1.85;;;8.70;99.90;;;8.60;100.00;99338.06;5139500;29;20054;-84
2023/04/13 00:14:14;;;;;;;3.38;1.00;;;8.70;99.90;;;8.64;100.00;99350.28;5139706;28;20047;-82
2023/04/13 00:16:46;;;;;;;1.70;0.70;;;8.70;99.90;;;8.69;100.00;99338.25;5137508;29;20039;-82
2023/04/13 00:19:18;;;;;;;1.70;1.05;;;8.80;99.90;;;8.72;100.00;99327.91;5139781;29;20039;-84
2023/04/13 00:21:52;;;;;;;1.85;0.85;;;8.80;99.90;;;8.75;100.00;99321.91;5136732;28;20039;-83
2023/04/13 00:24:24;;;;;;;2.08;0.82;;;8.90;99.90;;;8.85;100.00;99327.28;5135782;28;20036;-83
2023/04/13 00:26:57;;;;;;;1.60;1.00;;;8.90;99.90;;;8.87;100.00;99323.00;5127013;29;20047;-84
2023/04/13 00:29:29;;;;;;;0.98;0.85;;;9.00;99.90;;;8.91;100.00;99317.00;5127575;29;20088;-82
2023/04/13 00:32:01;;;;;;;1.75;1.08;;;9.00;99.90;;;8.94;99.27;99318.81;5129143;29;20048;-83
2023/04/13 00:34:36;;;;;;;2.13;0.95;;;9.10;99.90;;;8.94;99.73;99311.00;5138566;28;20043;-84
2023/04/13 00:37:10;;;;;;;1.50;0.90;;;9.10;99.90;;;9.00;100.00;99312.81;5132229;29;20043;-83
2023/04/13 00:39:44;;;;;;;0.98;0.70;;;9.10;99.90;;;9.04;99.69;99309.44;5139869;29;20043;-83
2023/04/13 00:42:18;;;;;;;1.75;0.80;;;9.10;99.90;;;9.09;99.90;99302.59;5140511;29;20043;-84
2023/04/13 00:44:51;;;;;;;2.53;1.02;;;9.20;99.90;;;9.10;99.84;99305.22;5156655;28;20047;-84
2023/04/13 00:47:28;;;;;;;2.05;0.80;;;9.20;99.90;;;9.13;99.57;99304.41;5141474;29;20047;-84
2023/04/13 00:50:03;;;;;;;0.80;0.80;;;9.20;99.90;;;9.12;99.78;99308.69;5145720;28;20058;-84
2023/04/13 00:52:38;;;;;;;1.02;0.82;;;9.20;99.90;;;9.14;100.00;99301.81;5140353;29;20055;-84
2023/04/13 00:55:10;;;;;;;3.63;1.00;;;9.20;99.90;;;9.19;100.00;99305.38;5141505;28;20047;-83
2023/04/13 00:57:42;;;;;;;0.85;0.70;;;9.30;99.90;;;9.19;99.38;99299.28;5140699;29;20059;-83
2023/04/13 01:00:16;;;;;;;0.70;0.70;;;9.30;99.90;;;9.19;98.88;99301.88;5139234;29;20047;-83
2023/04/13 01:02:49;;;;;;;0.60;0.60;;;9.30;99.90;;;9.21;98.70;99292.41;5154917;28;20054;-83
2023/04/13 01:05:24;;;;;;;2.90;0.80;;;9.30;99.90;;;9.27;99.06;99297.69;5146194;28;20043;-84
2023/04/13 01:08:08;;;;;;;1.00;0.80;;;9.30;99.90;;;9.35;98.88;99297.81;5138298;29;20043;-85
2023/04/13 01:10:51;;;;;;;4.35;1.00;;;9.40;99.90;;;9.34;99.09;99290.88;5132156;28;20047;-84
2023/04/13 01:13:31;;;;;;;1.13;0.73;;;9.40;99.90;;;9.36;97.68;99296.97;5139235;29;20051;-84
2023/04/13 01:16:11;;;;;;;2.78;1.00;;;9.40;99.90;;;9.37;96.22;99283.97;5139103;28;20050;-83
2023/04/13 01:18:48;;;;;;;1.33;0.80;;;9.40;99.90;;;9.39;97.85;99290.09;5138734;29;20079;-83
2023/04/13 01:21:26;;;;;;;2.80;0.75;;;9.50;99.90;;;9.38;97.38;99280.53;5138957;29;20035;-83
2023/04/13 01:24:16;;;;;;;1.67;0.65;;;9.50;99.90;;;9.42;98.01;99284.06;5139766;28;20566;-85
2023/04/13 01:26:57;;;;;;;2.35;1.15;;;9.50;99.90;;;9.46;96.61;99288.47;5141724;29;20049;-86
2023/04/13 01:29:31;;;;;;;2.20;0.77;;;9.50;99.90;;;9.42;96.75;99290.13;5140921;29;20051;-84
2023/04/13 01:32:04;;;;;;;1.85;1.00;;;9.50;99.90;;;9.34;95.32;99293.47;5141763;29;20065;-82
2023/04/13 01:34:37;;;;;;;1.00;1.00;;;9.40;99.90;;;9.29;97.34;99290.78;5147071;28;20043;-83
2023/04/13 01:37:13;;;;;;;1.10;0.70;;;9.40;99.90;;;9.28;97.77;99288.19;5150462;28;20071;-83
2023/04/13 01:39:46;;;;;;;1.85;0.90;;;9.40;99.90;;;9.24;97.44;99290.72;5140828;29;20079;-85
2023/04/13 01:42:31;;;;;;;3.45;0.73;;;9.40;99.90;;;9.24;98.03;99300.22;5141811;29;20106;-83
2023/04/13 01:45:10;;;;;;;1.20;0.65;;;9.30;99.90;;;9.22;98.86;99283.75;5141748;28;20066;-83
2023/04/13 01:47:50;;;;;;;0.85;0.73;;;9.30;99.90;;;9.19;97.70;99288.88;5151136;28;20047;-85
2023/04/13 01:50:37;;;;;;;1.35;0.75;;;9.30;99.90;;;9.17;97.02;99295.78;5140954;29;20074;-83
2023/04/13 01:53:31;;;;;;;2.80;1.00;;;9.30;99.90;;;9.15;98.16;99306.16;5140413;29;20057;-83
2023/04/13 01:56:05;;;;;;;0.68;0.68;;;9.30;99.90;;;9.16;98.98;99304.44;5155943;28;20504;-86
2023/04/13 01:58:39;;;;;;;1.95;0.77;;;9.30;99.90;;;9.18;98.52;99305.34;5140540;29;20402;-84
2023/04/13 02:01:18;;;;;;;1.42;0.70;;;9.30;99.90;;;9.23;99.15;99319.28;5140204;29;20050;-82
2023/04/13 02:03:51;;;;;;;0.70;0.60;;;9.30;99.90;;;9.22;98.79;99309.75;5140268;28;20063;-83
2023/04/13 02:06:23;;;;;;;1.50;0.75;;;9.30;99.90;;;9.29;99.40;99290.78;5140644;29;20067;-84
2023/04/13 02:08:57;;;;;;;0.80;0.80;;;9.40;99.90;;;9.25;96.94;99292.44;5140448;29;20055;-85
2023/04/13 02:11:30;;;;;;;1.98;0.80;;;9.30;99.90;;;9.24;98.31;99302.84;5156644;28;20039;-85
2023/04/13 02:14:02;;;;;;;0.80;0.80;;;9.40;99.90;;;9.27;99.10;99289.91;5133429;28;20065;-85
2023/04/13 02:16:37;;;;;;;0.63;0.63;;;9.40;99.90;;;9.22;97.77;99284.63;5140193;29;20043;-84
2023/04/13 02:19:09;;;;;;;0.70;0.60;;;9.30;99.90;;;9.26;98.85;99303.75;5140754;29;20063;-84
2023/04/13 02:21:41;;;;;;;0.57;0.52;;;9.30;99.90;;;9.30;98.08;99300.34;5141641;29;20063;-83
2023/04/13 02:24:14;;;;;;;1.45;0.80;;;9.40;99.90;;;9.31;98.25;99296.88;5133482;28;20043;-83
2023/04/13 02:26:46;;;;;;;1.75;0.80;;;9.40;99.90;;;9.36;98.62;99308.25;5132274;29;20067;-83
2023/04/13 02:29:18;;;;;;;1.67;0.80;;;9.40;99.90;;;9.33;97.40;99312.53;5139806;29;20082;-84
2023/04/13 02:31:52;;;;;;;0.88;0.60;;;9.40;99.90;;;9.34;98.42;99294.34;5132182;29;20039;-82
2023/04/13 02:34:24;;;;;;;1.52;0.60;;;9.40;99.90;;;9.33;98.54;99292.59;5155632;28;20059;-83
2023/04/13 02:36:56;;;;;;;0.75;0.75;;;9.40;99.90;;;9.33;98.90;99299.53;5131649;29;20055;-83
2023/04/13 02:39:29;;;;;;;0.73;0.73;;;9.40;99.90;;;9.35;98.65;99290.88;5141135;29;20110;-83
2023/04/13 02:42:03;;;;;;;1.55;1.00;;;9.40;99.90;;;9.34;98.13;99296.94;5140500;29;20473;-84
2023/04/13 02:44:37;;;;;;;0.82;0.70;;;9.40;99.90;;;9.35;98.75;99296.09;5131061;28;20031;-83
2023/04/13 02:47:10;;;;;;;0.80;0.60;;;9.40;99.90;;;9.31;98.50;99288.22;5139068;29;20513;-86
2023/04/13 02:49:46;;;;;;;0.68;0.60;;;9.40;99.90;;;9.31;98.51;99285.59;5127718;29;20048;-82
2023/04/13 02:52:27;;;;;;;0.70;0.70;;;9.40;99.90;;;9.32;99.22;99288.22;5138709;29;20043;-83
2023/04/13 02:55:09;;;;;;;2.67;0.65;;;9.40;99.90;;;9.33;98.85;99287.41;5140018;28;20106;-84
2023/04/13 02:57:58;;;;;;;1.08;0.70;;;9.40;99.90;;;9.32;98.53;99290.81;5141617;29;20595;-84
2023/04/13 03:00:31;;;;;;;1.13;0.75;;;9.40;99.90;;;9.30;98.33;99283.88;5142762;29;20119;-85
2023/04/13 03:03:08;;;;;;;1.88;0.63;;;9.40;99.90;;;9.35;97.78;99290.88;5143243;29;20055;-84
2023/04/13 03:05:49;;;;;;;0.88;0.65;;;9.40;99.90;;;9.34;98.42;99294.34;5142532;28;20496;-84
2023/04/13 03:08:25;;;;;;;0.70;0.55;;;9.40;99.90;;;9.27;97.98;99292.50;5138691;29;20062;-85
2023/04/13 03:11:19;;;;;;;0.63;0.63;;;9.40;99.90;;;9.24;98.63;99297.63;5140726;29;20536;-83
2023/04/13 03:13:59;;;;;;;0.95;0.50;;;9.30;99.90;;;9.24;98.46;99295.03;5141628;28;20050;-84
2023/04/13 03:16:33;;;;;;;0.50;0.50;;;9.30;99.90;;;9.24;98.37;99303.72;5157864;28;20051;-83
2023/04/13 03:19:06;;;;;;;2.67;0.75;;;9.30;99.90;;;9.25;98.58;99294.19;5140996;29;20114;-83
2023/04/13 03:21:41;;;;;;;2.53;1.13;;;9.30;99.90;;;9.27;98.84;99292.50;5154985;28;20062;-84
2023/04/13 03:24:18;;;;;;;1.10;0.80;;;9.30;99.90;;;9.30;98.93;99292.53;5131007;28;20074;-83
2023/04/13 03:26:52;;;;;;;0.60;0.60;;;9.30;99.90;;;9.31;98.98;99296.88;5151250;28;20048;-84
2023/04/13 03:29:32;;;;;;;0.55;0.52;;;9.30;99.90;;;9.34;99.75;99299.53;5162529;23;20051;-70
2023/04/13 03:32:05;;;;;;;1.10;0.60;;;9.40;99.90;;;9.36;98.01;99294.38;5141323;28;20046;-69
2023/04/13 03:34:42;;;;;;;1.40;0.73;;;9.40;99.90;;;9.33;97.54;99300.41;5122758;28;20051;-69
2023/04/13 03:37:17;;;;;;;1.65;0.75;;;9.40;99.90;;;9.34;98.48;99294.34;5122470;28;20163;-69
2023/04/13 03:39:49;;;;;;;0.85;0.70;;;9.40;99.90;;;9.34;98.92;99289.16;5122843;28;20047;-69
2023/04/13 03:42:26;;;;;;;1.83;0.70;;;9.40;99.90;;;9.34;98.61;99299.53;5138398;28;20063;-70
2023/04/13 03:45:03;;;;;;;0.70;0.70;;;9.40;99.90;;;9.34;98.96;99302.16;5137808;28;20042;-70
2023/04/13 03:47:37;;;;;;;2.65;1.08;;;9.40;99.90;;;9.38;99.03;99290.06;5130333;28;20102;-71
2023/04/13 03:50:11;;;;;;;1.65;0.90;;;9.40;99.90;;;9.40;97.74;99301.38;5130180;28;20057;-71
2023/04/13 03:52:44;;;;;;;1.55;0.40;;;9.50;99.90;;;9.46;97.66;99309.28;5124145;28;20409;-69
2023/04/13 03:55:17;;;;;;;3.53;0.90;;;9.50;99.90;;;9.48;97.82;99315.38;5123613;28;20435;-70
2023/04/13 03:57:50;;;;;;;1.05;0.80;;;9.50;99.90;;;9.45;97.43;99318.81;5137924;28;20043;-68
2023/04/13 04:00:27;;;;;;;1.58;0.70;;;9.50;99.90;;;9.44;98.45;99322.22;5133472;28;20082;-71
2023/04/13 04:03:14;;;;;;;1.48;0.63;;;9.50;99.90;;;9.52;97.62;99322.38;5138304;28;20464;-70
2023/04/13 04:05:59;;;;;;;2.45;0.85;;;9.60;99.90;;;9.52;97.37;99332.78;5122740;28;20039;-69
2023/04/13 04:08:33;;;;;;;1.77;1.30;;;9.50;99.90;;;9.52;97.15;99325.84;5122057;28;20070;-69
2023/04/13 04:11:10;;;;;;;2.95;0.93;;;9.50;99.90;;;9.49;97.76;99336.19;5122992;28;20524;-71
2023/04/13 04:13:42;;;;;;;1.55;0.70;;;9.50;99.90;;;9.50;98.71;99327.53;5150126;28;20417;-70
2023/04/13 04:16:17;;;;;;;1.23;0.77;;;9.50;99.90;;;9.55;97.61;99330.22;5135540;28;20290;-70
2023/04/13 04:18:55;;;;;;;1.35;0.90;;;9.60;99.90;;;9.56;97.72;99333.69;5138040;28;20047;-69
2023/04/13 04:21:34;;;;;;;1.00;0.70;;;9.60;99.90;;;9.54;98.20;99340.59;5121772;28;20091;-69
2023/04/13 04:24:11;;;;;;;3.03;1.02;;;9.60;99.90;;;9.56;97.28;99344.09;5137474;28;20078;-71
2023/04/13 04:26:49;;;;;;;2.05;0.80;;;9.60;99.90;;;9.61;97.67;99338.13;5130364;28;20527;-70
2023/04/13 04:29:28;;;;;;;0.98;0.80;;;9.60;99.90;;;9.63;96.53;99336.41;5138081;28;20078;-70
2023/04/13 04:32:02;;;;;;;1.05;0.75;;;9.60;99.90;;;9.67;96.31;99329.53;5139149;28;20070;-71
2023/04/13 04:34:34;;;;;;;0.85;0.70;;;9.70;99.90;;;9.68;96.38;99336.47;5133214;28;20058;-69
2023/04/13 04:37:12;;;;;;;0.60;0.60;;;9.70;99.90;;;9.63;96.68;99349.41;5150015;28;20047;-68
2023/04/13 04:39:45;;;;;;;1.42;0.52;;;9.70;99.90;;;9.60;96.85;99343.31;5132005;28;20143;-70
2023/04/13 04:42:21;;;;;;;0.70;0.52;;;9.70;99.90;;;9.58;97.83;99356.25;5155838;28;20059;-70
2023/04/13 04:44:55;;;;;;;1.38;0.70;;;9.60;99.90;;;9.62;96.27;99352.88;5147371;28;20134;-70
2023/04/13 04:47:29;;;;;;;2.70;1.25;;;9.70;99.90;;;9.61;97.20;99353.72;5138027;28;20047;-69
2023/04/13 04:50:13;;;;;;;2.10;0.70;;;9.60;99.90;;;9.63;97.33;99353.75;5139912;28;20065;-70
2023/04/13 04:52:50;;;;;;;1.95;0.40;;;9.60;99.90;;;9.62;98.18;99357.19;5127498;28;20482;-69
2023/04/13 04:55:26;;;;;;;1.55;0.80;;;9.70;99.90;;;9.60;99.01;99375.38;5139520;28;20139;-69
2023/04/13 04:57:58;;;;;;;0.68;0.68;;;9.60;99.90;;;9.62;98.83;99372.81;5131303;28;20043;-69
2023/04/13 05:00:31;;;;;;;1.30;0.60;;;9.70;99.90;;;9.64;98.87;99377.16;5125893;28;20050;-70
2023/04/13 05:03:08;;;;;;;0.60;0.60;;;9.70;99.90;;;9.64;99.08;99382.38;5129007;28;20047;-68
2023/04/13 05:05:44;;;;;;;1.08;0.70;;;9.70;99.90;;;9.65;99.08;99378.03;5135790;28;20039;-70
2023/04/13 05:08:22;;;;;;;2.25;0.90;;;9.70;99.90;;;9.68;98.87;99391.13;5148624;28;20047;-69
2023/04/13 05:10:55;;;;;;;0.60;0.45;;;9.70;99.90;;;9.67;99.21;99397.19;5151946;28;20485;-69
2023/04/13 05:13:28;;;;;;;1.30;0.60;;;9.70;99.90;;;9.71;99.48;99398.97;5145181;28;20082;-69
2023/04/13 05:16:13;;;;;;;0.63;0.60;;;9.70;99.90;;;9.71;99.52;99409.38;5142062;28;20035;-71
2023/04/13 05:18:47;;;;;;;0.93;0.77;;;9.80;99.90;;;9.71;99.13;99410.25;5137039;28;20053;-70
2023/04/13 05:21:45;;;;;;;0.63;0.57;;;9.80;99.90;;;9.72;99.38;99413.75;5137579;28;20523;-69
2023/04/13 05:24:19;;;;;;;1.83;0.65;;;9.80;99.90;;;9.73;98.96;99425.91;5140733;28;20047;-68
2023/04/13 05:26:52;;;;;;;1.33;0.63;;;9.80;99.90;;;9.72;99.02;99434.56;5131269;28;20042;-70
2023/04/13 05:29:27;;;;;;;0.63;0.63;;;9.80;99.90;;;9.70;99.34;99434.50;5130388;28;20050;-69
2023/04/13 05:32:00;;;;;;;1.50;0.80;;;9.80;99.90;;;9.69;99.33;99437.09;5136858;28;20054;-70
2023/04/13 05:34:36;;;;;;;2.03;0.98;;;9.70;99.90;;;9.67;99.31;99451.81;5130937;28;20045;-70
2023/04/13 05:37:19;;;;;;;3.70;0.93;;;9.70;99.90;;;9.68;99.84;99449.22;5133011;28;20047;-69
2023/04/13 05:39:53;;;;;;;1.00;0.60;;;9.70;99.90;;;9.70;99.62;99454.47;5140981;28;20094;-69
2023/04/13 05:42:31;;;;;;;0.43;0.43;;;9.70;99.90;;;9.67;99.51;99463.09;5128534;28;20058;-70
2023/04/13 05:45:08;;;;;;;0.75;0.65;;;9.70;99.90;;;9.72;100.00;99473.59;5128821;28;20046;-68
2023/04/13 05:47:43;;;;;;;2.20;0.70;;;9.70;99.90;;;9.71;100.00;99477.00;5131094;28;20138;-70
2023/04/13 05:50:19;;;;;;;1.58;0.68;;;9.70;99.90;;;9.69;100.00;99486.53;5130706;28;20054;-70
2023/04/13 05:52:52;;;;;;;0.60;0.55;;;9.70;99.90;;;9.68;100.00;99483.06;5130019;28;20038;-69
2023/04/13 05:55:26;;;;;;;1.63;0.60;;;9.70;99.90;;;9.67;100.00;99485.63;5127780;28;20570;-69
2023/04/13 05:58:05;;;;;;;;;;;9.70;99.90;;;9.64;100.00;99494.25;5131970;28;20051;-68
2023/04/13 06:00:37;;;;;;;1.48;0.52;;;9.80;99.90;;;9.62;100.00;99488.16;5140290;28;20393;-69
2023/04/13 06:03:15;;;;;;;0.73;0.50;;;9.70;99.90;;;9.62;100.00;99508.97;5125641;28;20118;-63
2023/04/13 06:05:48;;;;;;;2.22;0.60;;;9.70;99.90;;;9.60;100.00;99504.59;5123846;28;20039;-60
2023/04/13 06:08:20;;;;;;;1.88;0.60;;;9.70;99.90;;;9.61;100.00;99514.16;5122921;28;20047;-60
2023/04/13 06:10:54;;;;;;;1.27;0.60;;;9.60;99.90;;;9.62;100.00;99514.16;5123937;28;20047;-60
2023/04/13 06:13:26;;;;;;;0.70;0.70;;;9.70;99.90;;;9.68;100.00;99516.00;5139796;28;20131;-60
2023/04/13 06:15:58;;;;;;;1.15;0.70;;;9.70;99.90;;;9.67;100.00;99524.66;5124254;28;20392;-60
2023/04/13 06:18:30;;;;;;;0.57;0.57;;;9.70;99.90;;;9.68;100.00;99523.81;5138822;28;20047;-60
2023/04/13 06:21:03;;;;;;;1.45;0.70;;;9.70;99.90;;;9.67;100.00;99532.47;5123851;28;20066;-59
2023/04/13 06:23:36;;;;;;;0.68;0.50;;;9.70;99.90;;;9.69;100.00;99530.75;5124965;28;20034;-59
2023/04/13 06:26:15;;;;;;;0.50;0.50;;;9.70;99.90;;;9.71;100.00;99534.25;5123897;28;20050;-58
2023/04/13 06:28:56;;;;;;;0.55;0.55;;;9.70;99.90;;;9.72;100.00;99538.66;5145575;28;20050;-58
2023/04/13 06:31:29;;;;;;;1.85;0.63;;;9.70;99.90;;;9.72;100.00;99544.72;5127962;28;20055;-61
2023/04/13 06:34:06;;;;;;;0.80;0.50;;;9.70;99.90;;;9.75;100.00;99556.91;5123822;28;20039;-59
2023/04/13 06:36:42;;;;;;;0.70;0.70;;;9.70;99.90;;;9.75;100.00;99551.69;5137718;28;20075;-58
2023/04/13 06:39:18;;;;;;;0.55;0.55;;;9.70;99.90;;;9.72;100.00;99556.84;5138678;28;20105;-60
2023/04/13 06:42:01;;;;;;;0.50;0.50;;;9.70;99.90;;;9.70;100.00;99558.53;5134447;28;20047;-59
2023/04/13 06:44:53;;;;;;;1.67;0.68;;;9.80;99.90;;;9.70;100.00;99574.16;5121969;28;20062;-58
2023/04/13 06:47:27;;;;;;;0.57;0.57;;;9.70;99.90;;;9.69;100.00;99572.41;5136482;28;20063;-59
2023/04/13 06:50:05;;;;;;;1.40;0.70;;;9.70;99.90;;;9.68;100.00;99570.66;5123457;28;20047;-60
2023/04/13 06:52:43;;;;;;;0.70;0.70;;;9.70;99.90;;;9.67;100.00;99574.09;5123034;28;20047;-59
2023/04/13 06:55:16;;;;;;;0.73;0.70;;;9.70;99.90;;;9.69;100.00;99575.88;5142356;28;20141;-58
2023/04/13 06:57:49;;;;;;;0.38;0.35;;;9.70;99.90;;;9.74;100.00;99582.03;5138604;28;20390;-58
2023/04/13 07:00:22;;;;;;;0.70;0.70;;;9.70;99.90;;;9.76;100.00;99579.47;5129124;28;20055;-59
2023/04/13 07:02:54;;;;;;;1.63;0.70;;;9.70;99.90;;;9.89;100.00;99589.25;5124559;28;20054;-60
2023/04/13 07:05:27;;;;;;;0.95;0.57;;;9.90;99.90;;;9.97;100.00;99585.06;5123040;28;20051;-59
2023/04/13 07:08:05;;;;;;;2.15;0.90;;;10.00;99.90;;;10.02;100.00;99588.63;5125177;28;20046;-58
2023/04/13 07:10:39;;;;;;;0.88;0.57;;;10.00;99.90;;;10.05;100.00;99583.50;5122964;28;20061;-59
2023/04/13 07:13:20;;;;;;;0.40;0.40;;;10.10;99.90;;;10.11;100.00;99587.94;5107691;28;20083;-58
2023/04/13 07:15:52;;;;;;;1.05;0.65;;;10.10;99.90;;;10.18;100.00;99588.91;5123239;28;20062;-58
2023/04/13 07:18:25;;;;;;;0.43;0.43;;;10.10;99.90;;;10.27;100.00;99594.31;5127390;28;20512;-59
2023/04/13 07:20:59;;;;;;;0.43;0.43;;;10.20;99.90;;;10.32;100.00;99593.53;5138332;28;20051;-58
2023/04/13 07:23:38;;;;;;;0.30;0.30;;;10.20;99.90;;;10.42;100.00;99610.16;5130408;28;20468;-58
2023/04/13 07:26:13;;;;;;;0.40;0.40;;;10.30;99.90;;;10.51;100.00;99602.53;5122379;28;20071;-58
2023/04/13 07:28:47;;;;;;;0.40;0.40;;;10.40;99.90;;;10.66;100.00;99598.41;5122100;28;20514;-59
2023/04/13 07:31:21;;;;;;;0.70;0.70;;;10.50;99.90;;;11.02;100.00;99593.75;5138043;28;20166;-59
2023/04/13 07:33:56;;;;;;;0.40;0.40;;;10.70;99.90;;;11.45;100.00;99609.06;5129738;28;20500;-60
2023/04/13 07:36:35;;;;;;;1.90;0.70;;;11.10;99.90;;;12.05;100.00;99614.13;5122083;28;20078;-60
2023/04/13 07:39:14;;;;;;;0.52;0.50;;;11.50;99.90;;;12.73;96.79;99611.25;5130161;28;20047;-59
2023/04/13 07:41:52;;;;;;;1.80;0.50;;;12.10;99.90;;;13.47;93.09;99622.16;5138242;28;20578;-60
2023/04/13 07:44:33;;;;;;;0.60;0.57;;;12.70;99.90;;;14.22;88.18;99630.25;5121919;28;20067;-59
2023/04/13 07:47:05;;;;;;;0.40;0.40;;;13.40;99.90;;;14.85;84.32;99624.16;5140124;28;20141;-59
2023/04/13 07:49:38;;;;;;;0.65;0.63;;;14.00;99.90;;;15.05;82.00;99631.13;5138448;28;20479;-60
2023/04/13 07:52:15;;;;;;;0.55;0.55;;;14.40;99.90;;;14.95;80.48;99635.53;5130161;28;20488;-59
2023/04/13 07:54:48;;;;;;;0.88;0.45;;;14.40;98.60;;;14.58;78.94;99647.78;5136934;28;20055;-59
2023/04/13 07:57:21;;;;;;;0.50;0.50;;;14.20;97.20;;;14.12;80.22;99650.31;5127586;28;20039;-59
2023/04/13 08:00:03;;;;;;;0.50;0.50;;;13.90;97.30;;;13.68;81.75;99653.66;5129593;28;20447;-59
2023/04/13 08:02:47;;;;;;;0.60;0.60;;;13.50;97.80;;;13.34;83.54;99651.75;5123512;28;20062;-56
2023/04/13 08:05:25;;;;;;;0.57;0.57;;;13.20;98.70;;;13.08;84.43;99655.06;5137211;28;20111;-59
2023/04/13 08:07:57;;;;;;;0.80;0.60;;;12.90;99.10;;;12.79;85.01;99661.84;5122833;28;20057;-59
2023/04/13 08:10:31;;;;;;;0.60;0.32;;;12.70;99.40;;;12.54;86.35;99661.63;5105473;28;20344;-59
2023/04/13 08:13:07;;;;;;;0.52;0.52;;;12.40;99.90;;;12.35;87.68;99662.31;5121297;28;20059;-59
2023/04/13 08:15:41;;;;;;;1.55;0.57;;;12.20;99.90;;;12.21;88.98;99668.28;5126404;28;20051;-57
2023/04/13 08:18:14;;;;;;;0.52;0.45;;;12.10;99.90;;;12.10;90.20;99669.03;5121398;28;20051;-59
2023/04/13 08:20:48;;;;;;;1.15;0.70;;;12.00;99.90;;;11.99;92.00;99678.47;5120758;28;20504;-60
2023/04/13 08:23:24;;;;;;;0.63;0.60;;;11.90;99.90;;;11.88;93.12;99678.38;5121669;28;20054;-61
2023/04/13 08:26:01;;;;;;;0.60;0.60;;;11.80;99.90;;;11.83;94.32;99685.25;5129470;28;20161;-58
2023/04/13 08:28:34;;;;;;;0.65;0.57;;;11.70;99.90;;;11.78;94.49;99692.13;5147714;28;20055;-59
2023/04/13 08:31:08;;;;;;;0.60;0.60;;;11.70;99.90;;;11.73;94.78;99683.34;5128420;28;20059;-57
2023/04/13 08:33:42;;;;;;;1.00;0.70;;;11.60;99.90;;;11.73;95.28;99691.19;5121862;29;20137;-57
2023/04/13 08:36:16;;;;;;;1.00;0.70;;;11.60;99.90;;;11.73;94.77;99694.66;5105951;29;20043;-56
2023/04/13 08:38:53;;;;;;;0.73;0.60;;;11.60;99.90;;;11.72;94.58;99698.13;5106638;29;20055;-57
2023/04/13 08:41:27;;;;;;;2.40;0.80;;;11.50;99.90;;;11.75;94.51;99694.72;5121671;29;20535;-57
2023/04/13 08:44:04;;;;;;;1.30;0.70;;;11.60;99.90;;;11.79;93.72;99699.09;5130588;28;20488;-56
2023/04/13 08:46:41;;;;;;;1.25;0.70;;;11.60;99.90;;;11.77;93.97;99700.81;5136742;28;20051;-58
2023/04/13 08:49:15;;;;;;;1.80;1.00;;;11.60;99.90;;;11.77;94.18;99701.69;5146575;28;20238;-58
2023/04/13 08:52:10;;;;;;;1.95;0.90;;;11.60;99.90;;;11.75;93.57;99702.53;5140961;28;20412;-59
2023/04/13 08:54:46;;;;;;;2.47;1.20;;;11.60;99.90;;;11.73;94.03;99701.63;5149685;28;20043;-59
2023/04/13 08:57:31;;;;;;;1.33;0.73;;;11.60;99.90;;;11.72;94.00;99699.88;5134491;28;20056;-62
2023/04/13 09:00:12;;;;;;;0.98;0.70;;;11.60;99.90;;;11.74;94.18;99708.63;5144468;28;20150;-62
2023/04/13 09:02:48;;;;;;;1.02;0.80;;;11.60;99.90;;;11.77;94.01;99706.03;5138682;28;20134;-61
2023/04/13 09:05:25;;;;;;;4.22;0.98;;;11.60;99.90;;;11.81;93.49;99705.25;5145140;28;20051;-61
2023/04/13 09:08:06;;;;;;;0.70;0.70;;;11.60;99.90;;;11.81;93.75;99706.13;5145457;28;20109;-62
2023/04/13 09:10:39;;;;;;;3.90;1.00;;;11.60;99.90;;;11.83;94.01;99711.38;5123340;28;20134;-61
2023/04/13 09:13:13;;;;;;;1.70;0.90;;;11.60;99.90;;;11.87;93.73;99724.50;5137618;28;20048;-60
2023/04/13 09:15:46;;;;;;;1.90;0.80;;;11.70;99.90;;;11.88;93.31;99715.78;5133437;28;20047;-59
2023/04/13 09:18:51;;;;;;;2.63;1.02;;;11.70;99.90;;;11.84;93.21;99734.00;5123608;28;20156;-61
2023/04/13 09:21:36;;;;;;;1.05;0.85;;;11.70;99.90;;;11.87;93.42;99739.28;5125854;28;20046;-61
2023/04/13 09:24:09;;;;;;;2.63;0.93;;;11.70;99.90;;;11.89;92.73;99734.94;5125166;28;20062;-60
2023/04/13 09:26:44;;;;;;;2.92;1.00;;;11.70;99.90;;;11.91;92.42;99735.84;5126229;28;20131;-59
2023/04/13 09:29:18;;;;;;;2.45;1.08;;;11.70;99.90;;;11.94;92.02;99741.13;5125985;28;20043;-59
2023/04/13 09:31:52;;;;;;;3.97;1.08;;;11.70;99.90;;;11.99;91.62;99747.25;5179653;23;20058;-54
2023/04/13 09:34:29;;;;;;;2.17;1.25;;;11.80;99.90;;;12.05;91.66;99747.31;5175225;28;20045;-55
2023/04/13 09:37:12;;;;;;;2.38;1.05;;;11.80;99.90;;;12.12;91.05;99743.91;5188436;28;20434;-55
2023/04/13 09:39:45;;;;;;;2.42;0.90;;;11.90;99.90;;;12.27;91.09;99745.84;5165470;28;20078;-53
2023/04/13 09:42:18;;;;;;;3.20;1.10;;;12.00;99.90;;;12.54;91.32;99739.16;5144194;28;20086;-55
2023/04/13 09:44:57;;;;;;;3.55;1.00;;;12.20;99.90;;;13.03;90.28;99743.97;5145190;28;20051;-55
2023/04/13 09:47:37;;;;;;;3.22;1.10;;;12.60;99.90;;;13.56;89.09;99740.91;5162077;28;20041;-54
2023/04/13 09:50:31;;;;;;;2.40;1.10;;;12.90;99.90;;;13.85;86.13;99741.06;5145987;28;20047;-55
2023/04/13 09:53:04;;;;;;;4.35;0.93;;;13.30;99.90;;;13.93;84.60;99740.22;5145805;28;20510;-55
2023/04/13 09:55:39;;;;;;;3.83;1.10;;;13.50;99.90;;;13.89;83.99;99735.81;5145666;28;20561;-54
2023/04/13 09:58:12;;;;;;;3.00;1.15;;;13.50;99.90;;;13.78;83.81;99748.88;5152258;28;20133;-55
2023/04/13 10:00:46;;;;;;;3.55;0.90;;;13.40;99.80;;;13.57;83.68;99770.59;5162405;28;20482;-53
2023/04/13 10:03:21;;;;;;;3.30;0.95;;;13.30;99.40;;;13.34;86.30;99785.25;5145522;28;20041;-53
2023/04/13 10:05:55;;;;;;;3.35;1.00;;;13.10;99.90;;;13.00;90.29;99792.78;5145054;28;20035;-54
2023/04/13 10:08:28;;;;;;;4.80;1.05;;;12.90;99.90;;;12.70;94.15;99789.00;5139337;28;20046;-55
2023/04/13 10:11:02;;;;;;;2.03;0.95;;;12.60;99.90;;;12.38;96.46;99795.59;5144228;28;20057;-54
2023/04/13 10:13:41;;;;;;;3.30;0.93;;;12.40;99.90;;;12.08;99.01;99785.69;5136691;28;20055;-53
2023/04/13 10:16:52;;;;;;;2.17;0.73;;;12.10;99.90;;;11.82;100.00;99787.94;5138445;28;20153;-53
2023/04/13 10:19:29;;;;;;;0.82;0.40;;;11.80;99.90;;;11.69;100.00;99792.97;5140569;28;20446;-54
2023/04/13 10:22:05;;;;;;;2.55;1.00;;;11.60;99.90;;;11.76;100.00;99795.66;5144647;28;20047;-54
2023/04/13 10:24:39;;;;;;;3.97;1.60;;;11.60;99.90;;;12.18;100.00;99796.25;5144765;28;20050;-54
2023/04/13 10:27:14;;;;;;;2.05;1.08;;;11.90;99.90;;;12.59;100.00;99795.88;5142673;28;20065;-59
2023/04/13 10:29:47;;;;;;;5.32;1.25;;;12.30;99.90;;;12.78;100.00;99794.31;5143347;28;20046;-53
2023/04/13 10:32:23;;;;;;;3.42;1.25;;;12.50;99.90;;;12.91;100.00;99792.69;5142891;28;20042;-55
2023/04/13 10:34:56;;;;;;;3.15;1.45;;;12.60;99.90;;;12.98;100.00;99792.78;5146332;23;20118;-84
2023/04/13 10:37:29;;;;;;;5.45;1.67;;;12.70;99.90;;;13.25;100.00;99793.91;5175503;28;20058;-84
2023/04/13 10:40:05;;;;;;;5.22;1.85;;;12.90;99.90;;;13.65;100.00;99800.31;5169710;28;20079;-85
2023/04/13 10:42:43;;;;;;;4.72;1.35;;;13.10;99.90;;;13.85;100.00;99793.44;5165082;28;20055;-86
2023/04/13 10:45:22;;;;;;;2.97;1.20;;;13.40;99.90;;;14.09;100.00;99790.06;5176905;28;20073;-86
2023/04/13 10:47:57;;;;;;;6.63;1.50;;;13.60;99.90;;;14.26;100.00;99790.13;5172227;28;20049;-85
2023/04/13 10:50:29;;;;;;;5.53;1.85;;;13.80;99.90;;;14.46;100.00;99799.81;5165197;28;20046;-84
2023/04/13 10:53:05;;;;;;;2.70;1.10;;;13.90;99.90;;;14.63;100.00;99790.28;5152408;28;20055;-85
2023/04/13 10:55:37;;;;;;;8.65;1.45;;;14.10;99.90;;;14.85;98.36;99797.31;5183997;28;20050;-84
2023/04/13 10:58:17;;;;;;;5.18;1.25;;;14.30;99.90;;;15.04;95.87;99802.59;5168092;28;20409;-84
2023/04/13 11:00:50;;;;;;;5.05;1.45;;;14.50;99.90;;;15.06;93.01;99803.47;5163833;28;20056;-86
2023/04/13 11:03:22;;;;;;;7.68;1.77;;;14.60;99.90;;;14.99;91.33;99801.72;5157594;28;20047;-83